Bowmanville, Canada
Current Conditions -  °F | °C
As of 10:00 AM on Friday 24 Oct 2014 (Local Time) from CYOO Reporting Station
Clear Clear  
Wind Chill: 10°   Ceiling: Unl
Heat Index: 10°   Visibility: 9mi
Dew Point:   Wind: 8mph
Humidity: 76%   Direction: 330°NNW
Pressure: 30.01"   Gusts: NA
Location:  43.91°N, 78.69°W
Report Text: CYOO 241400Z AUTO 33007KT 9SM CLR 10/06 A3001 RMK SLP163
Loading
Personal Weather Stations






























Interactive Weather Map
Tropical Storm Tracking
New forecast layout! Learn more

10-Day Weather Forecast

Advertisements
Track Severe Weather on mobile